No particular awareness of the weather is required.    There are no Weather-warnings


Meteo18 Weather Cam more information Meteo18 Weather Cam


Thunder radar more information blitzortung!


Rain radar more information rain snow radar


Visit our other weather sites:

Template documentation
and downloads

And another site



Weather Underground History page Text

Daily Summary for July 3, 2017 Units:  Both    English   Metric
« Previous Day
Next Day »
Daily Weekly Monthly Yearly Custom
  High: Low: Average:
Temperature: 73.2 °F /  22.9 °C 58.8 °F /  14.9 °C 64.9 °F /  18.3 °C
Dew Point: 61 °F /  16.1 °C 55.9 °F /  13.3 °C 59.2 °F /  15.1 °C
Humidity: 97 % 56 % 83 %
Wind Speed: 12 mph /  19.3 km/h - 2.9 mph /  4.7 km/h
Wind Gust: 15 mph /  24.1 km/h - -
Wind:- - WSW
Pressure: 30.3 in /  1026.6 hPa 30.2 in /  1023.6 hPa -
Precipitation: 0 in /  0.0 mm    
Historical Graphs
 
 
Tabular Data for July 3, 2017
Time Temperature Dew Point Pressure Wind Wind Speed Wind Gust Humidity Rainfall Rate (Hourly)
00:02 60.8 °F /  16.0 °C 59.7 °F /  15.4 °C 30.3 in /  1026.3 hPa SSW 1 mph /  1.6 km/h 6 mph /  9.7 km/h 96 % 0 in /  0.0 mm
00:07 61 °F /  16.1 °C 59.9 °F /  15.5 °C 30.3 in /  1026.0 hPa Calm   4 mph /  6.4 km/h 96 % 0 in /  0.0 mm
00:12 60.8 °F /  16.0 °C 59.7 °F /  15.4 °C 30.3 in /  1026.0 hPa Calm   4 mph /  6.4 km/h 96 % 0 in /  0.0 mm
00:17 60.8 °F /  16.0 °C 59.7 °F /  15.4 °C 30.3 in /  1026.0 hPa Calm   3 mph /  4.8 km/h 96 % 0 in /  0.0 mm
00:22 60.6 °F /  15.9 °C 59.5 °F /  15.3 °C 30.3 in /  1026.3 hPa SW 2 mph /  3.2 km/h 3 mph /  4.8 km/h 96 % 0 in /  0.0 mm
00:27 60.8 °F /  16.0 °C 59.7 °F /  15.4 °C 30.3 in /  1026.0 hPa SW 2 mph /  3.2 km/h 3 mph /  4.8 km/h 96 % 0 in /  0.0 mm
00:32 61 °F /  16.1 °C 59.9 °F /  15.5 °C 30.3 in /  1026.0 hPa SSW 2 mph /  3.2 km/h 5 mph /  8.0 km/h 96 % 0 in /  0.0 mm
00:42 61 °F /  16.1 °C 59.9 °F /  15.5 °C 30.3 in /  1026.0 hPa SW 4 mph /  6.4 km/h 8 mph /  12.9 km/h 96 % 0 in /  0.0 mm
00:47 61.2 °F /  16.2 °C 60.1 °F /  15.6 °C 30.3 in /  1026.0 hPa SW 1 mph /  1.6 km/h 8 mph /  12.9 km/h 96 % 0 in /  0.0 mm
00:52 61 °F /  16.1 °C 59.9 °F /  15.5 °C 30.3 in /  1026.0 hPa SW 2 mph /  3.2 km/h 7 mph /  11.3 km/h 96 % 0 in /  0.0 mm
00:57 61.2 °F /  16.2 °C 60.1 °F /  15.6 °C 30.3 in /  1026.0 hPa SW 1 mph /  1.6 km/h 5 mph /  8.0 km/h 96 % 0 in /  0.0 mm
01:02 61.2 °F /  16.2 °C 60.1 °F /  15.6 °C 30.3 in /  1026.0 hPa SW 3 mph /  4.8 km/h 5 mph /  8.0 km/h 96 % 0 in /  0.0 mm
01:07 61.2 °F /  16.2 °C 60.1 °F /  15.6 °C 30.3 in /  1026.0 hPa Calm   5 mph /  8.0 km/h 96 % 0 in /  0.0 mm
01:12 61.2 °F /  16.2 °C 60.1 °F /  15.6 °C 30.3 in /  1026.0 hPa WSW 3 mph /  4.8 km/h 5 mph /  8.0 km/h 96 % 0 in /  0.0 mm
01:17 61.2 °F /  16.2 °C 60.1 °F /  15.6 °C 30.3 in /  1026.0 hPa Calm   5 mph /  8.0 km/h 96 % 0 in /  0.0 mm
01:22 61.2 °F /  16.2 °C 60.1 °F /  15.6 °C 30.3 in /  1026.0 hPa Calm   5 mph /  8.0 km/h 96 % 0 in /  0.0 mm
01:32 61.2 °F /  16.2 °C 60.1 °F /  15.6 °C 30.3 in /  1026.0 hPa Calm   4 mph /  6.4 km/h 96 % 0 in /  0.0 mm
01:37 61.3 °F /  16.3 °C 60.3 °F /  15.7 °C 30.3 in /  1026.0 hPa SW 1 mph /  1.6 km/h 4 mph /  6.4 km/h 96 % 0 in /  0.0 mm
01:42 61.3 °F /  16.3 °C 60.3 °F /  15.7 °C 30.3 in /  1026.0 hPa SW 4 mph /  6.4 km/h 4 mph /  6.4 km/h 96 % 0 in /  0.0 mm
01:47 61.3 °F /  16.3 °C 60.3 °F /  15.7 °C 30.3 in /  1026.0 hPa West 2 mph /  3.2 km/h 8 mph /  12.9 km/h 96 % 0 in /  0.0 mm
01:52 61.3 °F /  16.3 °C 60.3 °F /  15.7 °C 30.3 in /  1026.0 hPa West 2 mph /  3.2 km/h 8 mph /  12.9 km/h 96 % 0 in /  0.0 mm
01:57 61.3 °F /  16.3 °C 59.9 °F /  15.5 °C 30.3 in /  1026.0 hPa SW 2 mph /  3.2 km/h 8 mph /  12.9 km/h 95 % 0 in /  0.0 mm
02:02 61.3 °F /  16.3 °C 59.9 °F /  15.5 °C 30.3 in /  1026.0 hPa SW 2 mph /  3.2 km/h 7 mph /  11.3 km/h 95 % 0 in /  0.0 mm
02:07 61.3 °F /  16.3 °C 59.9 °F /  15.5 °C 30.3 in /  1026.0 hPa SW 2 mph /  3.2 km/h 6 mph /  9.7 km/h 95 % 0 in /  0.0 mm
02:12 61.2 °F /  16.2 °C 59.7 °F /  15.4 °C 30.3 in /  1026.0 hPa SW 1 mph /  1.6 km/h 6 mph /  9.7 km/h 95 % 0 in /  0.0 mm
02:17 61.2 °F /  16.2 °C 59.7 °F /  15.4 °C 30.3 in /  1026.0 hPa SSW 2 mph /  3.2 km/h 6 mph /  9.7 km/h 95 % 0 in /  0.0 mm
02:22 61.2 °F /  16.2 °C 59.7 °F /  15.4 °C 30.3 in /  1026.0 hPa SW 2 mph /  3.2 km/h 4 mph /  6.4 km/h 95 % 0 in /  0.0 mm
02:27 61.2 °F /  16.2 °C 59.7 °F /  15.4 °C 30.3 in /  1026.0 hPa WSW 4 mph /  6.4 km/h 4 mph /  6.4 km/h 95 % 0 in /  0.0 mm
02:32 61.2 °F /  16.2 °C 59.7 °F /  15.4 °C 30.3 in /  1026.0 hPa West 4 mph /  6.4 km/h 6 mph /  9.7 km/h 95 % 0 in /  0.0 mm
02:37 61 °F /  16.1 °C 59.5 °F /  15.3 °C 30.3 in /  1026.0 hPa WSW 2 mph /  3.2 km/h 6 mph /  9.7 km/h 95 % 0 in /  0.0 mm
02:42 61.2 °F /  16.2 °C 59.7 °F /  15.4 °C 30.3 in /  1026.0 hPa West 2 mph /  3.2 km/h 6 mph /  9.7 km/h 95 % 0 in /  0.0 mm
02:47 61 °F /  16.1 °C 59.5 °F /  15.3 °C 30.3 in /  1026.0 hPa WSW 1 mph /  1.6 km/h 5 mph /  8.0 km/h 95 % 0 in /  0.0 mm
02:52 61 °F /  16.1 °C 59.5 °F /  15.3 °C 30.3 in /  1026.0 hPa West 5 mph /  8.0 km/h 6 mph /  9.7 km/h 95 % 0 in /  0.0 mm
02:57 61 °F /  16.1 °C 59.9 °F /  15.5 °C 30.3 in /  1026.0 hPa West 2 mph /  3.2 km/h 6 mph /  9.7 km/h 96 % 0 in /  0.0 mm
03:02 61 °F /  16.1 °C 59.9 °F /  15.5 °C 30.3 in /  1026.0 hPa SW 1 mph /  1.6 km/h 6 mph /  9.7 km/h 96 % 0 in /  0.0 mm
03:07 61 °F /  16.1 °C 59.9 °F /  15.5 °C 30.3 in /  1026.0 hPa West 1 mph /  1.6 km/h 5 mph /  8.0 km/h 96 % 0 in /  0.0 mm
03:12 61.2 °F /  16.2 °C 60.1 °F /  15.6 °C 30.3 in /  1026.0 hPa Calm   5 mph /  8.0 km/h 96 % 0 in /  0.0 mm
03:17 61.2 °F /  16.2 °C 60.1 °F /  15.6 °C 30.3 in /  1026.0 hPa Calm   2 mph /  3.2 km/h 96 % 0 in /  0.0 mm
03:22 61.2 °F /  16.2 °C 60.1 °F /  15.6 °C 30.3 in /  1026.0 hPa Calm   2 mph /  3.2 km/h 96 % 0 in /  0.0 mm
03:27 61.2 °F /  16.2 °C 60.1 °F /  15.6 °C 30.3 in /  1026.0 hPa Calm   1 mph /  1.6 km/h 96 % 0 in /  0.0 mm
03:32 61 °F /  16.1 °C 59.9 °F /  15.5 °C 30.3 in /  1026.0 hPa WSW 4 mph /  6.4 km/h 4 mph /  6.4 km/h 96 % 0 in /  0.0 mm
03:37 61 °F /  16.1 °C 59.9 °F /  15.5 °C 30.3 in /  1026.0 hPa WSW 2 mph /  3.2 km/h 4 mph /  6.4 km/h 96 % 0 in /  0.0 mm
03:42 61 °F /  16.1 °C 59.9 °F /  15.5 °C 30.3 in /  1026.0 hPa West 3 mph /  4.8 km/h 4 mph /  6.4 km/h 96 % 0 in /  0.0 mm
03:47 61 °F /  16.1 °C 59.9 °F /  15.5 °C 30.3 in /  1026.0 hPa WSW 1 mph /  1.6 km/h 4 mph /  6.4 km/h 96 % 0 in /  0.0 mm
03:52 61 °F /  16.1 °C 59.9 °F /  15.5 °C 30.3 in /  1026.0 hPa WSW 2 mph /  3.2 km/h 4 mph /  6.4 km/h 96 % 0 in /  0.0 mm
03:57 60.8 °F /  16.0 °C 59.7 °F /  15.4 °C 30.3 in /  1026.0 hPa WSW 3 mph /  4.8 km/h 4 mph /  6.4 km/h 96 % 0 in /  0.0 mm
04:02 60.8 °F /  16.0 °C 59.7 °F /  15.4 °C 30.3 in /  1025.6 hPa West 1 mph /  1.6 km/h 4 mph /  6.4 km/h 96 % 0 in /  0.0 mm
04:07 60.8 °F /  16.0 °C 59.7 °F /  15.4 °C 30.3 in /  1025.6 hPa WSW 3 mph /  4.8 km/h 4 mph /  6.4 km/h 96 % 0 in /  0.0 mm
04:12 60.8 °F /  16.0 °C 59.7 °F /  15.4 °C 30.3 in /  1025.6 hPa WSW 1 mph /  1.6 km/h 4 mph /  6.4 km/h 96 % 0 in /  0.0 mm
04:17 60.6 °F /  15.9 °C 59.5 °F /  15.3 °C 30.3 in /  1025.6 hPa WSW 1 mph /  1.6 km/h 4 mph /  6.4 km/h 96 % 0 in /  0.0 mm
04:22 60.6 °F /  15.9 °C 59.5 °F /  15.3 °C 30.3 in /  1025.6 hPa Calm   4 mph /  6.4 km/h 96 % 0 in /  0.0 mm
04:27 60.6 °F /  15.9 °C 59.5 °F /  15.3 °C 30.3 in /  1025.6 hPa Calm   3 mph /  4.8 km/h 96 % 0 in /  0.0 mm
04:32 60.6 °F /  15.9 °C 59.5 °F /  15.3 °C 30.3 in /  1025.6 hPa West 1 mph /  1.6 km/h 2 mph /  3.2 km/h 96 % 0 in /  0.0 mm
04:37 60.6 °F /  15.9 °C 59.5 °F /  15.3 °C 30.3 in /  1025.6 hPa West 1 mph /  1.6 km/h 2 mph /  3.2 km/h 96 % 0 in /  0.0 mm
04:42 60.4 °F /  15.8 °C 59.4 °F /  15.2 °C 30.3 in /  1025.6 hPa West 1 mph /  1.6 km/h 2 mph /  3.2 km/h 96 % 0 in /  0.0 mm
04:47 60.4 °F /  15.8 °C 59.4 °F /  15.2 °C 30.3 in /  1025.6 hPa Calm   3 mph /  4.8 km/h 96 % 0 in /  0.0 mm
04:52 60.4 °F /  15.8 °C 59.4 °F /  15.2 °C 30.3 in /  1025.6 hPa Calm   3 mph /  4.8 km/h 96 % 0 in /  0.0 mm
04:57 60.4 °F /  15.8 °C 59.4 °F /  15.2 °C 30.3 in /  1025.6 hPa Calm   3 mph /  4.8 km/h 96 % 0 in /  0.0 mm
05:02 60.4 °F /  15.8 °C 59.4 °F /  15.2 °C 30.3 in /  1025.6 hPa Calm   3 mph /  4.8 km/h 96 % 0 in /  0.0 mm
05:07 60.4 °F /  15.8 °C 59.4 °F /  15.2 °C 30.3 in /  1025.6 hPa Calm     96 % 0 in /  0.0 mm
05:12 60.6 °F /  15.9 °C 59.5 °F /  15.3 °C 30.3 in /  1025.6 hPa Calm     96 % 0 in /  0.0 mm
05:17 60.4 °F /  15.8 °C 59.4 °F /  15.2 °C 30.3 in /  1025.6 hPa Calm     96 % 0 in /  0.0 mm
05:22 60.6 °F /  15.9 °C 59.5 °F /  15.3 °C 30.3 in /  1025.6 hPa Calm     96 % 0 in /  0.0 mm
05:32 60.6 °F /  15.9 °C 59.5 °F /  15.3 °C 30.3 in /  1025.6 hPa Calm     96 % 0 in /  0.0 mm
05:37 60.6 °F /  15.9 °C 59.5 °F /  15.3 °C 30.3 in /  1025.6 hPa Calm     96 % 0 in /  0.0 mm
05:42 60.6 °F /  15.9 °C 59.5 °F /  15.3 °C 30.3 in /  1025.6 hPa Calm     96 % 0 in /  0.0 mm
05:47 60.6 °F /  15.9 °C 59.5 °F /  15.3 °C 30.3 in /  1025.6 hPa Calm     96 % 0 in /  0.0 mm
05:52 60.6 °F /  15.9 °C 59.5 °F /  15.3 °C 30.3 in /  1025.6 hPa Calm     96 % 0 in /  0.0 mm
05:57 60.6 °F /  15.9 °C 59.5 °F /  15.3 °C 30.3 in /  1025.6 hPa Calm     96 % 0 in /  0.0 mm
06:02 60.6 °F /  15.9 °C 59.5 °F /  15.3 °C 30.3 in /  1025.6 hPa Calm     96 % 0 in /  0.0 mm
06:12 60.8 °F /  16.0 °C 59.7 °F /  15.4 °C 30.3 in /  1025.6 hPa Calm     96 % 0 in /  0.0 mm
06:17 60.8 °F /  16.0 °C 59.7 °F /  15.4 °C 30.3 in /  1025.6 hPa Calm     96 % 0 in /  0.0 mm
06:22 60.8 °F /  16.0 °C 59.7 °F /  15.4 °C 30.3 in /  1025.6 hPa Calm     96 % 0 in /  0.0 mm
06:32 60.8 °F /  16.0 °C 59.7 °F /  15.4 °C 30.3 in /  1025.6 hPa Calm   2 mph /  3.2 km/h 96 % 0 in /  0.0 mm
06:42 60.8 °F /  16.0 °C 59.7 °F /  15.4 °C 30.3 in /  1025.6 hPa Calm   2 mph /  3.2 km/h 96 % 0 in /  0.0 mm
06:52 60.8 °F /  16.0 °C 59.7 °F /  15.4 °C 30.3 in /  1025.6 hPa Calm     96 % 0 in /  0.0 mm
07:02 61 °F /  16.1 °C 60.1 °F /  15.6 °C 30.3 in /  1025.6 hPa Calm     97 % 0 in /  0.0 mm
07:07 61 °F /  16.1 °C 60.1 °F /  15.6 °C 30.3 in /  1025.6 hPa Calm     97 % 0 in /  0.0 mm
07:12 61 °F /  16.1 °C 60.1 °F /  15.6 °C 30.3 in /  1025.6 hPa Calm     97 % 0 in /  0.0 mm
07:17 61 °F /  16.1 °C 59.9 °F /  15.5 °C 30.3 in /  1026.0 hPa Calm     96 % 0 in /  0.0 mm
07:22 61 °F /  16.1 °C 60.1 °F /  15.6 °C 30.3 in /  1026.0 hPa Calm     97 % 0 in /  0.0 mm
07:32 61 °F /  16.1 °C 60.1 °F /  15.6 °C 30.3 in /  1026.0 hPa SSW 4 mph /  6.4 km/h 4 mph /  6.4 km/h 97 % 0 in /  0.0 mm
07:37 60.8 °F /  16.0 °C 59.9 °F /  15.5 °C 30.3 in /  1026.0 hPa SSW 2 mph /  3.2 km/h 5 mph /  8.0 km/h 97 % 0 in /  0.0 mm
07:42 60.8 °F /  16.0 °C 59.9 °F /  15.5 °C 30.3 in /  1026.0 hPa SW 3 mph /  4.8 km/h 5 mph /  8.0 km/h 97 % 0 in /  0.0 mm
07:47 60.8 °F /  16.0 °C 59.9 °F /  15.5 °C 30.3 in /  1026.0 hPa SSW 3 mph /  4.8 km/h 5 mph /  8.0 km/h 97 % 0 in /  0.0 mm
07:52 60.6 °F /  15.9 °C 59.7 °F /  15.4 °C 30.3 in /  1026.0 hPa SSW 2 mph /  3.2 km/h 5 mph /  8.0 km/h 97 % 0 in /  0.0 mm
08:02 60.6 °F /  15.9 °C 59.7 °F /  15.4 °C 30.3 in /  1026.0 hPa SW 3 mph /  4.8 km/h 7 mph /  11.3 km/h 97 % 0 in /  0.0 mm
08:12 60.6 °F /  15.9 °C 59.7 °F /  15.4 °C 30.3 in /  1026.0 hPa WSW 3 mph /  4.8 km/h 7 mph /  11.3 km/h 97 % 0 in /  0.0 mm
08:17 60.6 °F /  15.9 °C 59.7 °F /  15.4 °C 30.3 in /  1026.0 hPa SW 2 mph /  3.2 km/h 6 mph /  9.7 km/h 97 % 0 in /  0.0 mm
08:22 60.6 °F /  15.9 °C 59.7 °F /  15.4 °C 30.3 in /  1026.0 hPa West 3 mph /  4.8 km/h 6 mph /  9.7 km/h 97 % 0 in /  0.0 mm
08:32 60.8 °F /  16.0 °C 59.9 °F /  15.5 °C 30.3 in /  1026.0 hPa SSW 2 mph /  3.2 km/h 8 mph /  12.9 km/h 97 % 0 in /  0.0 mm
08:37 60.8 °F /  16.0 °C 59.9 °F /  15.5 °C 30.3 in /  1026.3 hPa SW 6 mph /  9.7 km/h 8 mph /  12.9 km/h 97 % 0 in /  0.0 mm
08:42 60.8 °F /  16.0 °C 59.9 °F /  15.5 °C 30.3 in /  1026.3 hPa WSW 4 mph /  6.4 km/h 6 mph /  9.7 km/h 97 % 0 in /  0.0 mm
08:47 60.8 °F /  16.0 °C 59.9 °F /  15.5 °C 30.3 in /  1026.3 hPa SW 4 mph /  6.4 km/h 6 mph /  9.7 km/h 97 % 0 in /  0.0 mm
08:52 60.6 °F /  15.9 °C 59.7 °F /  15.4 °C 30.3 in /  1026.3 hPa SW 5 mph /  8.0 km/h 9 mph /  14.5 km/h 97 % 0 in /  0.0 mm
08:57 60.6 °F /  15.9 °C 59.7 °F /  15.4 °C 30.3 in /  1026.3 hPa SW 4 mph /  6.4 km/h 9 mph /  14.5 km/h 97 % 0 in /  0.0 mm
09:02 60.6 °F /  15.9 °C 59.7 °F /  15.4 °C 30.3 in /  1026.3 hPa SSW 5 mph /  8.0 km/h 9 mph /  14.5 km/h 97 % 0 in /  0.0 mm
09:12 61 °F /  16.1 °C 60.1 °F /  15.6 °C 30.3 in /  1026.3 hPa SW 4 mph /  6.4 km/h 8 mph /  12.9 km/h 97 % 0 in /  0.0 mm
09:17 61 °F /  16.1 °C 60.1 °F /  15.6 °C 30.3 in /  1026.3 hPa South 4 mph /  6.4 km/h 8 mph /  12.9 km/h 97 % 0 in /  0.0 mm
09:22 61 °F /  16.1 °C 60.1 °F /  15.6 °C 30.3 in /  1026.3 hPa SW 4 mph /  6.4 km/h 8 mph /  12.9 km/h 97 % 0 in /  0.0 mm
09:32 61 °F /  16.1 °C 60.1 °F /  15.6 °C 30.3 in /  1026.3 hPa SW 1 mph /  1.6 km/h 9 mph /  14.5 km/h 97 % 0 in /  0.0 mm
09:37 61.2 °F /  16.2 °C 60.3 °F /  15.7 °C 30.3 in /  1026.3 hPa WSW 5 mph /  8.0 km/h 8 mph /  12.9 km/h 97 % 0 in /  0.0 mm
09:42 61 °F /  16.1 °C 60.1 °F /  15.6 °C 30.3 in /  1026.3 hPa WSW 6 mph /  9.7 km/h 9 mph /  14.5 km/h 97 % 0 in /  0.0 mm
09:47 61 °F /  16.1 °C 60.1 °F /  15.6 °C 30.3 in /  1026.3 hPa SW 4 mph /  6.4 km/h 11 mph /  17.7 km/h 97 % 0 in /  0.0 mm
09:52 61 °F /  16.1 °C 60.1 °F /  15.6 °C 30.3 in /  1026.3 hPa SSW 4 mph /  6.4 km/h 11 mph /  17.7 km/h 97 % 0 in /  0.0 mm
09:57 61 °F /  16.1 °C 60.1 °F /  15.6 °C 30.3 in /  1026.3 hPa WSW 5 mph /  8.0 km/h 11 mph /  17.7 km/h 97 % 0 in /  0.0 mm
10:02 60.6 °F /  15.9 °C 59.7 °F /  15.4 °C 30.3 in /  1026.3 hPa West 5 mph /  8.0 km/h 8 mph /  12.9 km/h 97 % 0 in /  0.0 mm
10:12 60.8 °F /  16.0 °C 59.9 °F /  15.5 °C 30.3 in /  1026.3 hPa WNW 7 mph /  11.3 km/h 8 mph /  12.9 km/h 97 % 0 in /  0.0 mm
10:17 61 °F /  16.1 °C 60.1 °F /  15.6 °C 30.3 in /  1026.3 hPa WSW 2 mph /  3.2 km/h 8 mph /  12.9 km/h 97 % 0 in /  0.0 mm
10:22 61.2 °F /  16.2 °C 60.3 °F /  15.7 °C 30.3 in /  1026.3 hPa WSW 3 mph /  4.8 km/h 8 mph /  12.9 km/h 97 % 0 in /  0.0 mm
10:27 61.2 °F /  16.2 °C 60.1 °F /  15.6 °C 30.3 in /  1026.3 hPa West 7 mph /  11.3 km/h 8 mph /  12.9 km/h 96 % 0 in /  0.0 mm
10:32 61.2 °F /  16.2 °C 60.1 °F /  15.6 °C 30.3 in /  1026.6 hPa WNW 6 mph /  9.7 km/h 9 mph /  14.5 km/h 96 % 0 in /  0.0 mm
10:37 61.2 °F /  16.2 °C 59.7 °F /  15.4 °C 30.3 in /  1026.6 hPa West 3 mph /  4.8 km/h 10 mph /  16.1 km/h 95 % 0 in /  0.0 mm
10:42 61.2 °F /  16.2 °C 59.4 °F /  15.2 °C 30.3 in /  1026.6 hPa West 7 mph /  11.3 km/h 10 mph /  16.1 km/h 94 % 0 in /  0.0 mm
10:47 61.2 °F /  16.2 °C 59.4 °F /  15.2 °C 30.3 in /  1026.6 hPa SW 2 mph /  3.2 km/h 11 mph /  17.7 km/h 94 % 0 in /  0.0 mm
10:52 61.3 °F /  16.3 °C 59.4 °F /  15.2 °C 30.3 in /  1026.6 hPa WSW 8 mph /  12.9 km/h 11 mph /  17.7 km/h 93 % 0 in /  0.0 mm
10:57 61.5 °F /  16.4 °C 59.5 °F /  15.3 °C 30.3 in /  1026.6 hPa West 2 mph /  3.2 km/h 10 mph /  16.1 km/h 93 % 0 in /  0.0 mm
11:02 61.9 °F /  16.6 °C 59.5 °F /  15.3 °C 30.3 in /  1026.3 hPa WSW 2 mph /  3.2 km/h 9 mph /  14.5 km/h 92 % 0 in /  0.0 mm
11:07 62.2 °F /  16.8 °C 59.5 °F /  15.3 °C 30.3 in /  1026.3 hPa WNW 3 mph /  4.8 km/h 9 mph /  14.5 km/h 91 % 0 in /  0.0 mm
11:12 62.4 °F /  16.9 °C 59.4 °F /  15.2 °C 30.3 in /  1026.3 hPa WNW 2 mph /  3.2 km/h 9 mph /  14.5 km/h 90 % 0 in /  0.0 mm
11:17 62.2 °F /  16.8 °C 59 °F /  15.0 °C 30.3 in /  1026.0 hPa WNW 6 mph /  9.7 km/h 8 mph /  12.9 km/h 89 % 0 in /  0.0 mm
11:22 62.6 °F /  17.0 °C 59.5 °F /  15.3 °C 30.3 in /  1026.3 hPa West 7 mph /  11.3 km/h 10 mph /  16.1 km/h 90 % 0 in /  0.0 mm
11:27 62.8 °F /  17.1 °C 59.5 °F /  15.3 °C 30.3 in /  1026.3 hPa WSW 4 mph /  6.4 km/h 11 mph /  17.7 km/h 89 % 0 in /  0.0 mm
11:32 63.1 °F /  17.3 °C 59.9 °F /  15.5 °C 30.3 in /  1026.3 hPa SW 3 mph /  4.8 km/h 11 mph /  17.7 km/h 89 % 0 in /  0.0 mm
11:37 63.3 °F /  17.4 °C 59.7 °F /  15.4 °C 30.3 in /  1026.3 hPa West 5 mph /  8.0 km/h 11 mph /  17.7 km/h 88 % 0 in /  0.0 mm
11:42 63.7 °F /  17.6 °C 59.7 °F /  15.4 °C 30.3 in /  1026.3 hPa WSW 5 mph /  8.0 km/h 11 mph /  17.7 km/h 87 % 0 in /  0.0 mm
11:47 63.9 °F /  17.7 °C 59.9 °F /  15.5 °C 30.3 in /  1026.3 hPa West 3 mph /  4.8 km/h 11 mph /  17.7 km/h 87 % 0 in /  0.0 mm
11:52 63.7 °F /  17.6 °C 59.7 °F /  15.4 °C 30.3 in /  1026.3 hPa West 4 mph /  6.4 km/h 11 mph /  17.7 km/h 87 % 0 in /  0.0 mm
11:57 63.7 °F /  17.6 °C 59.7 °F /  15.4 °C 30.3 in /  1026.3 hPa SW 4 mph /  6.4 km/h 9 mph /  14.5 km/h 87 % 0 in /  0.0 mm
12:02 64 °F /  17.8 °C 60.4 °F /  15.8 °C 30.3 in /  1026.3 hPa West 5 mph /  8.0 km/h 8 mph /  12.9 km/h 88 % 0 in /  0.0 mm
12:07 64 °F /  17.8 °C 60.1 °F /  15.6 °C 30.3 in /  1026.3 hPa West 3 mph /  4.8 km/h 7 mph /  11.3 km/h 87 % 0 in /  0.0 mm
12:12 64 °F /  17.8 °C 59.7 °F /  15.4 °C 30.3 in /  1026.0 hPa WSW 5 mph /  8.0 km/h 8 mph /  12.9 km/h 86 % 0 in /  0.0 mm
12:17 64.2 °F /  17.9 °C 59.9 °F /  15.5 °C 30.3 in /  1026.0 hPa WNW 5 mph /  8.0 km/h 9 mph /  14.5 km/h 86 % 0 in /  0.0 mm
12:22 64.8 °F /  18.2 °C 60.8 °F /  16.0 °C 30.3 in /  1026.0 hPa West 3 mph /  4.8 km/h 9 mph /  14.5 km/h 87 % 0 in /  0.0 mm
12:27 65.5 °F /  18.6 °C 60.8 °F /  16.0 °C 30.3 in /  1026.0 hPa SW 3 mph /  4.8 km/h 9 mph /  14.5 km/h 85 % 0 in /  0.0 mm
12:32 65.7 °F /  18.7 °C 60.4 °F /  15.8 °C 30.3 in /  1026.0 hPa West 2 mph /  3.2 km/h 9 mph /  14.5 km/h 83 % 0 in /  0.0 mm
12:42 66 °F /  18.9 °C 60.1 °F /  15.6 °C 30.3 in /  1026.0 hPa West 5 mph /  8.0 km/h 11 mph /  17.7 km/h 81 % 0 in /  0.0 mm
12:47 66.9 °F /  19.4 °C 60.3 °F /  15.7 °C 30.3 in /  1026.0 hPa WNW 4 mph /  6.4 km/h 11 mph /  17.7 km/h 79 % 0 in /  0.0 mm
12:52 66.7 °F /  19.3 °C 60.1 °F /  15.6 °C 30.3 in /  1026.0 hPa WNW 5 mph /  8.0 km/h 11 mph /  17.7 km/h 79 % 0 in /  0.0 mm
12:57 66.9 °F /  19.4 °C 60.6 °F /  15.9 °C 30.3 in /  1026.0 hPa West 8 mph /  12.9 km/h 11 mph /  17.7 km/h 80 % 0 in /  0.0 mm
13:02 67.3 °F /  19.6 °C 60.3 °F /  15.7 °C 30.3 in /  1026.0 hPa SW 7 mph /  11.3 km/h 11 mph /  17.7 km/h 78 % 0 in /  0.0 mm
13:07 67.5 °F /  19.7 °C 60.8 °F /  16.0 °C 30.3 in /  1026.0 hPa Calm   11 mph /  17.7 km/h 79 % 0 in /  0.0 mm
13:17 67.3 °F /  19.6 °C 59.9 °F /  15.5 °C 30.3 in /  1026.0 hPa West 7 mph /  11.3 km/h 10 mph /  16.1 km/h 77 % 0 in /  0.0 mm
13:22 67.5 °F /  19.7 °C 60.8 °F /  16.0 °C 30.3 in /  1026.0 hPa WSW 5 mph /  8.0 km/h 11 mph /  17.7 km/h 79 % 0 in /  0.0 mm
13:27 67.8 °F /  19.9 °C 60.3 °F /  15.7 °C 30.3 in /  1026.0 hPa WNW 4 mph /  6.4 km/h 11 mph /  17.7 km/h 77 % 0 in /  0.0 mm
13:32 68 °F /  20.0 °C 60.4 °F /  15.8 °C 30.3 in /  1025.6 hPa West 6 mph /  9.7 km/h 11 mph /  17.7 km/h 77 % 0 in /  0.0 mm
13:37 68.4 °F /  20.2 °C 60.8 °F /  16.0 °C 30.3 in /  1025.6 hPa SW 5 mph /  8.0 km/h 11 mph /  17.7 km/h 77 % 0 in /  0.0 mm
13:42 69.1 °F /  20.6 °C 60.4 °F /  15.8 °C 30.3 in /  1025.6 hPa West 4 mph /  6.4 km/h 10 mph /  16.1 km/h 74 % 0 in /  0.0 mm
13:47 68.7 °F /  20.4 °C 60.4 °F /  15.8 °C 30.3 in /  1025.6 hPa NW 5 mph /  8.0 km/h 11 mph /  17.7 km/h 75 % 0 in /  0.0 mm
13:52 68.7 °F /  20.4 °C 60.8 °F /  16.0 °C 30.3 in /  1025.3 hPa SSE 1 mph /  1.6 km/h 11 mph /  17.7 km/h 76 % 0 in /  0.0 mm
13:57 69.1 °F /  20.6 °C 60.4 °F /  15.8 °C 30.3 in /  1025.3 hPa West 7 mph /  11.3 km/h 11 mph /  17.7 km/h 74 % 0 in /  0.0 mm
14:02 69.4 °F /  20.8 °C 60.8 °F /  16.0 °C 30.3 in /  1025.3 hPa NW 6 mph /  9.7 km/h 11 mph /  17.7 km/h 74 % 0 in /  0.0 mm
14:07 70 °F /  21.1 °C 61 °F /  16.1 °C 30.3 in /  1025.3 hPa WSW 5 mph /  8.0 km/h 11 mph /  17.7 km/h 73 % 0 in /  0.0 mm
14:12 69.6 °F /  20.9 °C 60.6 °F /  15.9 °C 30.3 in /  1025.3 hPa WSW 10 mph /  16.1 km/h 12 mph /  19.3 km/h 73 % 0 in /  0.0 mm
14:17 69.4 °F /  20.8 °C 60.8 °F /  16.0 °C 30.3 in /  1025.3 hPa West 8 mph /  12.9 km/h 13 mph /  20.9 km/h 74 % 0 in /  0.0 mm
14:22 69.6 °F /  20.9 °C 60.3 °F /  15.7 °C 30.3 in /  1025.3 hPa SW 4 mph /  6.4 km/h 13 mph /  20.9 km/h 72 % 0 in /  0.0 mm
14:27 70 °F /  21.1 °C 61 °F /  16.1 °C 30.3 in /  1025.3 hPa WSW 10 mph /  16.1 km/h 13 mph /  20.9 km/h 73 % 0 in /  0.0 mm
14:32 69.3 °F /  20.7 °C 60.3 °F /  15.7 °C 30.3 in /  1025.3 hPa West 10 mph /  16.1 km/h 11 mph /  17.7 km/h 73 % 0 in /  0.0 mm
14:37 68.9 °F /  20.5 °C 60.3 °F /  15.7 °C 30.3 in /  1025.3 hPa West 4 mph /  6.4 km/h 11 mph /  17.7 km/h 74 % 0 in /  0.0 mm
14:42 69.6 °F /  20.9 °C 61 °F /  16.1 °C 30.3 in /  1025.3 hPa WNW 3 mph /  4.8 km/h 12 mph /  19.3 km/h 74 % 0 in /  0.0 mm
14:47 69.8 °F /  21.0 °C 59.9 °F /  15.5 °C 30.3 in /  1025.3 hPa SW 6 mph /  9.7 km/h 12 mph /  19.3 km/h 71 % 0 in /  0.0 mm
14:52 69.4 °F /  20.8 °C 60.1 °F /  15.6 °C 30.3 in /  1025.3 hPa WSW 4 mph /  6.4 km/h 15 mph /  24.1 km/h 72 % 0 in /  0.0 mm
14:57 69.4 °F /  20.8 °C 60.1 °F /  15.6 °C 30.3 in /  1025.3 hPa West 6 mph /  9.7 km/h 15 mph /  24.1 km/h 72 % 0 in /  0.0 mm
15:02 69.6 °F /  20.9 °C 60.3 °F /  15.7 °C 30.3 in /  1025.3 hPa WSW 7 mph /  11.3 km/h 14 mph /  22.5 km/h 72 % 0 in /  0.0 mm
15:07 69.4 °F /  20.8 °C 60.8 °F /  16.0 °C 30.3 in /  1025.3 hPa WSW 5 mph /  8.0 km/h 14 mph /  22.5 km/h 74 % 0 in /  0.0 mm
15:12 70 °F /  21.1 °C 60.6 °F /  15.9 °C 30.3 in /  1025.3 hPa West 9 mph /  14.5 km/h 12 mph /  19.3 km/h 72 % 0 in /  0.0 mm
15:17 69.3 °F /  20.7 °C 59.5 °F /  15.3 °C 30.3 in /  1025.3 hPa WSW 7 mph /  11.3 km/h 12 mph /  19.3 km/h 71 % 0 in /  0.0 mm
15:22 68.7 °F /  20.4 °C 60.1 °F /  15.6 °C 30.3 in /  1025.3 hPa WNW 12 mph /  19.3 km/h 12 mph /  19.3 km/h 74 % 0 in /  0.0 mm
15:27 68.2 °F /  20.1 °C 59.9 °F /  15.5 °C 30.3 in /  1025.3 hPa West 10 mph /  16.1 km/h 15 mph /  24.1 km/h 75 % 0 in /  0.0 mm
15:32 68.4 °F /  20.2 °C 59.7 °F /  15.4 °C 30.3 in /  1025.3 hPa West 8 mph /  12.9 km/h 15 mph /  24.1 km/h 74 % 0 in /  0.0 mm
15:37 68.7 °F /  20.4 °C 60.4 °F /  15.8 °C 30.3 in /  1025.3 hPa SW 6 mph /  9.7 km/h 13 mph /  20.9 km/h 75 % 0 in /  0.0 mm
15:42 68.5 °F /  20.3 °C 59.5 °F /  15.3 °C 30.3 in /  1025.3 hPa West 4 mph /  6.4 km/h 13 mph /  20.9 km/h 73 % 0 in /  0.0 mm
15:47 69.1 °F /  20.6 °C 60.4 °F /  15.8 °C 30.3 in /  1025.3 hPa West 4 mph /  6.4 km/h 13 mph /  20.9 km/h 74 % 0 in /  0.0 mm
15:52 69.1 °F /  20.6 °C 60.1 °F /  15.6 °C 30.3 in /  1024.9 hPa West 7 mph /  11.3 km/h 13 mph /  20.9 km/h 73 % 0 in /  0.0 mm
15:57 69.1 °F /  20.6 °C 59.7 °F /  15.4 °C 30.3 in /  1024.9 hPa WNW 3 mph /  4.8 km/h 11 mph /  17.7 km/h 72 % 0 in /  0.0 mm
16:02 69.3 °F /  20.7 °C 59.9 °F /  15.5 °C 30.3 in /  1024.9 hPa West 7 mph /  11.3 km/h 11 mph /  17.7 km/h 72 % 0 in /  0.0 mm
16:07 69.4 °F /  20.8 °C 59.5 °F /  15.3 °C 30.3 in /  1024.9 hPa WNW 2 mph /  3.2 km/h 13 mph /  20.9 km/h 71 % 0 in /  0.0 mm
16:12 69.4 °F /  20.8 °C 59.5 °F /  15.3 °C 30.3 in /  1024.9 hPa WNW 8 mph /  12.9 km/h 13 mph /  20.9 km/h 71 % 0 in /  0.0 mm
16:17 69.1 °F /  20.6 °C 59.7 °F /  15.4 °C 30.3 in /  1024.9 hPa WSW 11 mph /  17.7 km/h 14 mph /  22.5 km/h 72 % 0 in /  0.0 mm
16:22 68.5 °F /  20.3 °C 59.2 °F /  15.1 °C 30.3 in /  1024.9 hPa WNW 11 mph /  17.7 km/h 14 mph /  22.5 km/h 72 % 0 in /  0.0 mm
16:27 69.1 °F /  20.6 °C 60.1 °F /  15.6 °C 30.3 in /  1024.9 hPa West 4 mph /  6.4 km/h 14 mph /  22.5 km/h 73 % 0 in /  0.0 mm
16:32 69.4 °F /  20.8 °C 59.5 °F /  15.3 °C 30.3 in /  1024.9 hPa West 3 mph /  4.8 km/h 14 mph /  22.5 km/h 71 % 0 in /  0.0 mm
16:37 70.2 °F /  21.2 °C 59.9 °F /  15.5 °C 30.3 in /  1024.9 hPa West 10 mph /  16.1 km/h 13 mph /  20.9 km/h 70 % 0 in /  0.0 mm
16:42 70.2 °F /  21.2 °C 59.2 °F /  15.1 °C 30.3 in /  1024.9 hPa West 7 mph /  11.3 km/h 12 mph /  19.3 km/h 68 % 0 in /  0.0 mm
16:47 70.2 °F /  21.2 °C 59.2 °F /  15.1 °C 30.3 in /  1024.9 hPa WSW 3 mph /  4.8 km/h 12 mph /  19.3 km/h 68 % 0 in /  0.0 mm
16:52 70.5 °F /  21.4 °C 58.6 °F /  14.8 °C 30.3 in /  1024.9 hPa West 9 mph /  14.5 km/h 12 mph /  19.3 km/h 66 % 0 in /  0.0 mm
16:57 70.2 °F /  21.2 °C 58.6 °F /  14.8 °C 30.3 in /  1024.9 hPa West 4 mph /  6.4 km/h 14 mph /  22.5 km/h 67 % 0 in /  0.0 mm
17:02 70.3 °F /  21.3 °C 59.4 °F /  15.2 °C 30.3 in /  1024.6 hPa WSW 8 mph /  12.9 km/h 14 mph /  22.5 km/h 68 % 0 in /  0.0 mm
17:12 70.5 °F /  21.4 °C 57.7 °F /  14.3 °C 30.3 in /  1024.6 hPa WSW 3 mph /  4.8 km/h 14 mph /  22.5 km/h 64 % 0 in /  0.0 mm
17:17 70.5 °F /  21.4 °C 57.7 °F /  14.3 °C 30.3 in /  1024.6 hPa Calm   14 mph /  22.5 km/h 64 % 0 in /  0.0 mm
17:22 71.2 °F /  21.8 °C 57.9 °F /  14.4 °C 30.3 in /  1024.6 hPa West 4 mph /  6.4 km/h 13 mph /  20.9 km/h 63 % 0 in /  0.0 mm
17:27 70.9 °F /  21.6 °C 57.7 °F /  14.3 °C 30.3 in /  1024.3 hPa WNW 7 mph /  11.3 km/h 11 mph /  17.7 km/h 63 % 0 in /  0.0 mm
17:32 71.2 °F /  21.8 °C 57.6 °F /  14.2 °C 30.3 in /  1024.3 hPa West 7 mph /  11.3 km/h 11 mph /  17.7 km/h 62 % 0 in /  0.0 mm
17:37 71.4 °F /  21.9 °C 57.7 °F /  14.3 °C 30.3 in /  1024.3 hPa SW 2 mph /  3.2 km/h 11 mph /  17.7 km/h 62 % 0 in /  0.0 mm
17:42 72 °F /  22.2 °C 57.7 °F /  14.3 °C 30.3 in /  1024.3 hPa West 5 mph /  8.0 km/h 11 mph /  17.7 km/h 61 % 0 in /  0.0 mm
17:47 72.7 °F /  22.6 °C 58.5 °F /  14.7 °C 30.3 in /  1024.3 hPa SW 7 mph /  11.3 km/h 11 mph /  17.7 km/h 61 % 0 in /  0.0 mm
17:52 72.5 °F /  22.5 °C 57.4 °F /  14.1 °C 30.3 in /  1024.3 hPa WSW 6 mph /  9.7 km/h 9 mph /  14.5 km/h 59 % 0 in /  0.0 mm
17:57 72.1 °F /  22.3 °C 56.5 °F /  13.6 °C 30.3 in /  1024.3 hPa WSW 5 mph /  8.0 km/h 10 mph /  16.1 km/h 58 % 0 in /  0.0 mm
18:02 72.1 °F /  22.3 °C 57.9 °F /  14.4 °C 30.3 in /  1024.3 hPa West 5 mph /  8.0 km/h 11 mph /  17.7 km/h 61 % 0 in /  0.0 mm
18:07 72.7 °F /  22.6 °C 57.6 °F /  14.2 °C 30.2 in /  1023.9 hPa West 7 mph /  11.3 km/h 11 mph /  17.7 km/h 59 % 0 in /  0.0 mm
18:12 72.9 °F /  22.7 °C 58.1 °F /  14.5 °C 30.2 in /  1023.9 hPa NW 5 mph /  8.0 km/h 11 mph /  17.7 km/h 60 % 0 in /  0.0 mm
18:17 72.7 °F /  22.6 °C 57 °F /  13.9 °C 30.2 in /  1023.9 hPa West 4 mph /  6.4 km/h 13 mph /  20.9 km/h 58 % 0 in /  0.0 mm
18:22 72.7 °F /  22.6 °C 57 °F /  13.9 °C 30.2 in /  1023.9 hPa West 6 mph /  9.7 km/h 13 mph /  20.9 km/h 58 % 0 in /  0.0 mm
18:27 72.3 °F /  22.4 °C 57.2 °F /  14.0 °C 30.2 in /  1023.9 hPa West 3 mph /  4.8 km/h 13 mph /  20.9 km/h 59 % 0 in /  0.0 mm
18:32 72.3 °F /  22.4 °C 57.2 °F /  14.0 °C 30.2 in /  1023.9 hPa Calm   13 mph /  20.9 km/h 59 % 0 in /  0.0 mm
18:42 73 °F /  22.8 °C 56.8 °F /  13.8 °C 30.2 in /  1023.9 hPa WNW 4 mph /  6.4 km/h 10 mph /  16.1 km/h 57 % 0 in /  0.0 mm
18:47 72.9 °F /  22.7 °C 56.7 °F /  13.7 °C 30.2 in /  1023.9 hPa WNW 2 mph /  3.2 km/h 12 mph /  19.3 km/h 57 % 0 in /  0.0 mm
18:52 73 °F /  22.8 °C 56.5 °F /  13.6 °C 30.2 in /  1023.9 hPa West 4 mph /  6.4 km/h 12 mph /  19.3 km/h 56 % 0 in /  0.0 mm
18:57 73 °F /  22.8 °C 56.8 °F /  13.8 °C 30.2 in /  1023.9 hPa WNW 5 mph /  8.0 km/h 12 mph /  19.3 km/h 57 % 0 in /  0.0 mm
19:02 72.9 °F /  22.7 °C 57.2 °F /  14.0 °C 30.2 in /  1023.9 hPa WNW 6 mph /  9.7 km/h 10 mph /  16.1 km/h 58 % 0 in /  0.0 mm
19:07 72.7 °F /  22.6 °C 57 °F /  13.9 °C 30.2 in /  1023.9 hPa SW 4 mph /  6.4 km/h 10 mph /  16.1 km/h 58 % 0 in /  0.0 mm
19:12 72.7 °F /  22.6 °C 57 °F /  13.9 °C 30.2 in /  1023.9 hPa West 3 mph /  4.8 km/h 8 mph /  12.9 km/h 58 % 0 in /  0.0 mm
19:17 72.7 °F /  22.6 °C 56.5 °F /  13.6 °C 30.2 in /  1023.9 hPa WSW 3 mph /  4.8 km/h 8 mph /  12.9 km/h 57 % 0 in /  0.0 mm
19:22 72.5 °F /  22.5 °C 56.8 °F /  13.8 °C 30.2 in /  1023.9 hPa WSW 2 mph /  3.2 km/h 9 mph /  14.5 km/h 58 % 0 in /  0.0 mm
19:27 72.7 °F /  22.6 °C 56.5 °F /  13.6 °C 30.2 in /  1023.9 hPa NW 3 mph /  4.8 km/h 9 mph /  14.5 km/h 57 % 0 in /  0.0 mm
19:32 72.9 °F /  22.7 °C 57.2 °F /  14.0 °C 30.2 in /  1023.9 hPa WNW 3 mph /  4.8 km/h 9 mph /  14.5 km/h 58 % 0 in /  0.0 mm
19:37 72.9 °F /  22.7 °C 56.7 °F /  13.7 °C 30.2 in /  1023.9 hPa NW 5 mph /  8.0 km/h 9 mph /  14.5 km/h 57 % 0 in /  0.0 mm
19:42 72.9 °F /  22.7 °C 57.2 °F /  14.0 °C 30.2 in /  1023.9 hPa WNW 2 mph /  3.2 km/h 9 mph /  14.5 km/h 58 % 0 in /  0.0 mm
19:47 72.9 °F /  22.7 °C 57.2 °F /  14.0 °C 30.2 in /  1023.9 hPa Calm   8 mph /  12.9 km/h 58 % 0 in /  0.0 mm
19:52 73 °F /  22.8 °C 56.8 °F /  13.8 °C 30.2 in /  1023.9 hPa West 2 mph /  3.2 km/h 6 mph /  9.7 km/h 57 % 0 in /  0.0 mm
19:57 72.9 °F /  22.7 °C 57.2 °F /  14.0 °C 30.2 in /  1023.9 hPa SSW 3 mph /  4.8 km/h 5 mph /  8.0 km/h 58 % 0 in /  0.0 mm
20:02 72.9 °F /  22.7 °C 57.2 °F /  14.0 °C 30.2 in /  1023.9 hPa WNW 3 mph /  4.8 km/h 5 mph /  8.0 km/h 58 % 0 in /  0.0 mm
20:07 72.9 °F /  22.7 °C 57.2 °F /  14.0 °C 30.2 in /  1023.9 hPa WSW 4 mph /  6.4 km/h 6 mph /  9.7 km/h 58 % 0 in /  0.0 mm
20:17 72.9 °F /  22.7 °C 57.2 °F /  14.0 °C 30.2 in /  1023.9 hPa West 1 mph /  1.6 km/h 9 mph /  14.5 km/h 58 % 0 in /  0.0 mm
20:22 73 °F /  22.8 °C 56.8 °F /  13.8 °C 30.2 in /  1023.9 hPa WSW 2 mph /  3.2 km/h 8 mph /  12.9 km/h 57 % 0 in /  0.0 mm
20:32 73.2 °F /  22.9 °C 57.6 °F /  14.2 °C 30.2 in /  1023.9 hPa Calm   5 mph /  8.0 km/h 58 % 0 in /  0.0 mm
20:37 73.2 °F /  22.9 °C 57 °F /  13.9 °C 30.2 in /  1023.6 hPa NW 2 mph /  3.2 km/h 4 mph /  6.4 km/h 57 % 0 in /  0.0 mm
20:42 73 °F /  22.8 °C 57.4 °F /  14.1 °C 30.2 in /  1023.6 hPa WNW 2 mph /  3.2 km/h 4 mph /  6.4 km/h 58 % 0 in /  0.0 mm
20:47 73 °F /  22.8 °C 57.4 °F /  14.1 °C 30.2 in /  1023.9 hPa Calm   4 mph /  6.4 km/h 58 % 0 in /  0.0 mm
20:52 73 °F /  22.8 °C 57.9 °F /  14.4 °C 30.2 in /  1023.6 hPa WNW 1 mph /  1.6 km/h 3 mph /  4.8 km/h 59 % 0 in /  0.0 mm
20:57 72.9 °F /  22.7 °C 57.7 °F /  14.3 °C 30.2 in /  1023.9 hPa WNW 2 mph /  3.2 km/h 2 mph /  3.2 km/h 59 % 0 in /  0.0 mm
21:02 72.1 °F /  22.3 °C 57.6 °F /  14.2 °C 30.2 in /  1023.6 hPa WNW 2 mph /  3.2 km/h 3 mph /  4.8 km/h 60 % 0 in /  0.0 mm
21:07 72 °F /  22.2 °C 57.7 °F /  14.3 °C 30.2 in /  1023.9 hPa WNW 1 mph /  1.6 km/h 3 mph /  4.8 km/h 61 % 0 in /  0.0 mm
21:12 71.4 °F /  21.9 °C 57.2 °F /  14.0 °C 30.2 in /  1023.6 hPa WNW 1 mph /  1.6 km/h 3 mph /  4.8 km/h 61 % 0 in /  0.0 mm
21:17 71.4 °F /  21.9 °C 57.7 °F /  14.3 °C 30.2 in /  1023.6 hPa Calm   2 mph /  3.2 km/h 62 % 0 in /  0.0 mm
21:27 71.4 °F /  21.9 °C 58.1 °F /  14.5 °C 30.2 in /  1023.6 hPa Calm   2 mph /  3.2 km/h 63 % 0 in /  0.0 mm
21:32 70.3 °F /  21.3 °C 58.1 °F /  14.5 °C 30.2 in /  1023.6 hPa Calm   1 mph /  1.6 km/h 65 % 0 in /  0.0 mm
21:37 68.4 °F /  20.2 °C 57 °F /  13.9 °C 30.2 in /  1023.6 hPa Calm   1 mph /  1.6 km/h 67 % 0 in /  0.0 mm
21:42 67.1 °F /  19.5 °C 57 °F /  13.9 °C 30.2 in /  1023.6 hPa Calm   1 mph /  1.6 km/h 70 % 0 in /  0.0 mm
21:47 66.6 °F /  19.2 °C 56.8 °F /  13.8 °C 30.2 in /  1023.6 hPa Calm   1 mph /  1.6 km/h 71 % 0 in /  0.0 mm
21:52 66 °F /  18.9 °C 56.7 °F /  13.7 °C 30.2 in /  1023.6 hPa Calm   1 mph /  1.6 km/h 72 % 0 in /  0.0 mm
21:57 65.1 °F /  18.4 °C 57 °F /  13.9 °C 30.2 in /  1023.6 hPa Calm   1 mph /  1.6 km/h 75 % 0 in /  0.0 mm
22:02 64.8 °F /  18.2 °C 57.4 °F /  14.1 °C 30.2 in /  1023.6 hPa Calm     77 % 0 in /  0.0 mm
22:07 64.2 °F /  17.9 °C 57.2 °F /  14.0 °C 30.2 in /  1023.6 hPa Calm     78 % 0 in /  0.0 mm
22:12 64 °F /  17.8 °C 57 °F /  13.9 °C 30.2 in /  1023.6 hPa Calm     78 % 0 in /  0.0 mm
22:17 64 °F /  17.8 °C 57.4 °F /  14.1 °C 30.2 in /  1023.6 hPa Calm     79 % 0 in /  0.0 mm
22:22 63.9 °F /  17.7 °C 57.2 °F /  14.0 °C 30.2 in /  1023.6 hPa Calm     79 % 0 in /  0.0 mm
22:32 62.4 °F /  16.9 °C 56.8 °F /  13.8 °C 30.2 in /  1023.9 hPa Calm     82 % 0 in /  0.0 mm
22:37 61.9 °F /  16.6 °C 57 °F /  13.9 °C 30.2 in /  1023.6 hPa Calm     84 % 0 in /  0.0 mm
22:42 61.3 °F /  16.3 °C 56.8 °F /  13.8 °C 30.2 in /  1023.6 hPa Calm     85 % 0 in /  0.0 mm
22:47 61.3 °F /  16.3 °C 57.2 °F /  14.0 °C 30.2 in /  1023.9 hPa Calm     86 % 0 in /  0.0 mm
22:52 61.2 °F /  16.2 °C 57 °F /  13.9 °C 30.2 in /  1023.6 hPa Calm     86 % 0 in /  0.0 mm
22:57 61.2 °F /  16.2 °C 57 °F /  13.9 °C 30.2 in /  1023.9 hPa Calm     86 % 0 in /  0.0 mm
23:02 61.3 °F /  16.3 °C 56.5 °F /  13.6 °C 30.2 in /  1023.6 hPa Calm     84 % 0 in /  0.0 mm
23:12 61.3 °F /  16.3 °C 56.5 °F /  13.6 °C 30.2 in /  1023.6 hPa Calm     84 % 0 in /  0.0 mm
23:17 61.2 °F /  16.2 °C 56.3 °F /  13.5 °C 30.2 in /  1023.9 hPa Calm     84 % 0 in /  0.0 mm
23:22 60.8 °F /  16.0 °C 56.3 °F /  13.5 °C 30.2 in /  1023.9 hPa Calm     85 % 0 in /  0.0 mm
23:27 60.4 °F /  15.8 °C 56.3 °F /  13.5 °C 30.2 in /  1023.9 hPa Calm     86 % 0 in /  0.0 mm
23:32 60.1 °F /  15.6 °C 56.1 °F /  13.4 °C 30.2 in /  1023.9 hPa Calm     87 % 0 in /  0.0 mm
23:37 59.5 °F /  15.3 °C 55.9 °F /  13.3 °C 30.2 in /  1023.9 hPa Calm     88 % 0 in /  0.0 mm
23:42 59.2 °F /  15.1 °C 55.9 °F /  13.3 °C 30.2 in /  1023.9 hPa Calm     89 % 0 in /  0.0 mm
23:47 59 °F /  15.0 °C 56.1 °F /  13.4 °C 30.2 in /  1023.9 hPa Calm     90 % 0 in /  0.0 mm
23:52 59 °F /  15.0 °C 56.1 °F /  13.4 °C 30.2 in /  1023.9 hPa Calm     90 % 0 in /  0.0 mm
23:57 58.8 °F /  14.9 °C 55.9 °F /  13.3 °C 30.2 in /  1023.9 hPa Calm     90 % 0 in /  0.0 mm
Meteo18
Compliments of Weather Underground - 4 mb

Script developed by  Jim McMurry - jmcmurry@mwt.net Adapted for the template by  Wim van der Kuil - Leuven-Template.eu

You find our weather info also at:

European Weather Network

Weather Underground

Equipment we use:

Weather-station
Davis Vue

Weather-program
Meteohub

Weather-server
Raspberry PI 2 B+

Provider
1 and 1

Davis Vue

Meteohub

Raspberry PI 2 B+

1 and 1